Aérodrome :
LOGIN :

S'inscrire | Disclaimer

   EN    FR    IT 

 










Légende :    VFR   VFR Marginal   IFR   IFR Intensif   IFR Très Intensif
Visi : 
Plafond : 
>= 8 km
>= 3000ft
5 à 8 km
1000 à 3000 ft
1500m à 5 km
500 à 1000 ft
800 à 1500m
200 à 500 ft
< 800m
< 200 ft
Symboles :   Orages  Brouillard  Fortes neiges  Fortes précipitations  Vent > 20 kt
SIGMETs :   Divers  Orages  Givrage  Turbulence  Onde Orograph.  Cendres Volcan.






- Altitude de l'aérodrome : 1299 ft


EDTY - Adolf Würth

DERNIER METAR :
  • 202120Z AUTO 19004KT 150V230 9999 // FEW110/// OVC140/// 07/M03 Q1003

METARs EXPIRÉS :
  • 202050Z AUTO 21003KT 170V250 9999 // SCT110/// OVC140/// 05/M02 Q1003
  • 202020Z AUTO 21004KT 150V240 9999 // FEW110/// OVC140/// 04/M02 Q1003
  • 201950Z AUTO 09003KT 9999 // OVC140/// 02/M02 Q1003
  • 201920Z AUTO VRB02KT 9999 // FEW120/// BKN140/// 02/M02 Q1003
  • 201850Z 10008KT CAVOK 02/M02 Q1004

TAF TAF EDTY
Valide du 20 à 18h jusqu'au 21 à 03h UTC


201700Z 2018/2103 17004KT CAVOK



MET'MAP, la Météo Aéronautique d'un coup d'oeil ! - Copyright ORBIFLY Décembre 2007 - Disclaimer

ORBIFLY MET'MAP TEAM :

Programmation & Développement : Alexandra Zaïnal
Sur une idée originale de : Baudouin d'Aumeries
Assistance à la programmation : Marc-Olivier Méhu
Soutien technique & logistique : Manuel Goepfert

Contact : metmap@orbifly.com




SOURCES & CREDITS :

   NOAA